createdAt,value
2019-05-26T00:01:25.272Z,11.13
2019-05-26T00:03:53.705Z,10.43
2019-05-26T00:06:22.473Z,10.50
2019-05-26T00:08:50.911Z,10.63
2019-05-26T00:11:19.366Z,10.80
2019-05-26T00:13:47.815Z,10.27
2019-05-26T00:16:16.299Z,10.43
2019-05-26T00:18:45.083Z,11.20
2019-05-26T00:21:13.534Z,9.57
2019-05-26T00:23:41.971Z,9.67
2019-05-26T00:26:10.422Z,9.57
2019-05-26T00:28:38.858Z,8.73
2019-05-26T00:31:07.434Z,10.00
2019-05-26T00:33:35.955Z,10.27
2019-05-26T00:36:04.496Z,10.43
2019-05-26T00:38:33.002Z,10.53
2019-05-26T00:41:01.530Z,10.27
2019-05-26T00:43:30.307Z,10.50
2019-05-26T00:45:58.766Z,10.83
2019-05-26T00:48:27.266Z,9.73
2019-05-26T00:50:55.962Z,11.33
2019-05-26T00:53:24.466Z,11.27
2019-05-26T00:55:52.984Z,9.77
2019-05-26T00:58:21.486Z,10.60
2019-05-26T01:00:50.012Z,9.97
2019-05-26T01:03:18.462Z,10.67
2019-05-26T01:05:46.930Z,9.70
2019-05-26T01:08:15.370Z,10.40
2019-05-26T01:10:43.817Z,11.20
2019-05-26T01:13:12.257Z,10.63
2019-05-26T01:15:40.697Z,9.47
2019-05-26T01:18:09.567Z,9.90
2019-05-26T01:20:38.024Z,10.17
2019-05-26T01:23:06.561Z,10.30
2019-05-26T01:25:35.056Z,10.40
2019-05-26T01:28:03.563Z,9.93
2019-05-26T01:30:39.406Z,10.10
2019-05-26T01:33:08.114Z,11.17
2019-05-26T01:35:39.856Z,10.93
2019-05-26T01:38:23.224Z,10.70
2019-05-26T01:40:42.453Z,10.10
2019-05-26T01:43:11.100Z,10.90
2019-05-26T01:45:39.672Z,10.63
2019-05-26T01:48:08.489Z,10.83
2019-05-26T01:50:37.002Z,11.47
2019-05-26T01:53:06.016Z,10.53
2019-05-26T01:55:34.595Z,11.23
2019-05-26T01:58:03.124Z,11.03
2019-05-26T02:00:31.880Z,10.87
2019-05-26T02:03:00.418Z,10.67
2019-05-26T02:05:28.853Z,10.50
2019-05-26T02:07:57.381Z,10.67
2019-05-26T02:10:26.343Z,10.87
2019-05-26T02:12:54.815Z,10.80
2019-05-26T02:15:23.894Z,11.30
2019-05-26T02:17:52.485Z,10.37
2019-05-26T02:20:21.570Z,10.60
2019-05-26T02:22:50.037Z,10.17
2019-05-26T02:25:20.503Z,10.20
2019-05-26T02:27:49.293Z,11.13
2019-05-26T02:30:18.078Z,10.50
2019-05-26T02:32:46.531Z,9.83
2019-05-26T02:35:15.620Z,10.40
2019-05-26T02:37:44.261Z,10.03
2019-05-26T02:40:14.292Z,10.10
2019-05-26T02:42:42.736Z,10.73
2019-05-26T02:45:15.968Z,11.00
2019-05-26T02:47:45.910Z,9.87
2019-05-26T02:50:16.643Z,9.43
2019-05-26T02:52:45.139Z,10.37
2019-05-26T02:55:15.543Z,9.70
2019-05-26T02:57:43.991Z,9.77
2019-05-26T03:00:14.293Z,10.07
2019-05-26T03:02:43.300Z,10.40
2019-05-26T03:05:12.271Z,10.53
2019-05-26T03:07:43.585Z,10.70
2019-05-26T03:10:14.228Z,11.00
2019-05-26T03:12:43.533Z,10.80
2019-05-26T03:15:13.735Z,10.00
2019-05-26T03:17:42.970Z,9.60
2019-05-26T03:20:15.007Z,9.83
2019-05-26T03:22:43.529Z,9.67
2019-05-26T03:25:14.387Z,10.13
2019-05-26T03:27:42.899Z,9.80
2019-05-26T03:30:11.797Z,9.93
2019-05-26T03:32:40.328Z,10.97
2019-05-26T03:35:10.088Z,10.10
2019-05-26T03:37:38.721Z,10.17
2019-05-26T03:40:09.250Z,9.90
2019-05-26T03:42:37.818Z,11.13
2019-05-26T03:45:07.711Z,10.60
2019-05-26T03:47:36.296Z,10.53
2019-05-26T03:50:06.749Z,10.63
2019-05-26T03:52:35.317Z,10.60
2019-05-26T03:55:05.030Z,10.50
2019-05-26T03:57:33.528Z,11.03
2019-05-26T04:00:02.007Z,11.03
2019-05-26T04:02:30.781Z,10.57
2019-05-26T04:04:59.244Z,10.47
2019-05-26T04:07:27.677Z,9.30
2019-05-26T04:10:04.426Z,10.27
2019-05-26T04:12:26.296Z,10.17
2019-05-26T04:14:54.764Z,10.07
2019-05-26T04:17:23.211Z,10.73
2019-05-26T04:19:51.677Z,10.73
2019-05-26T04:22:20.180Z,10.80
2019-05-26T04:24:48.926Z,10.60
2019-05-26T04:27:17.383Z,12.37
2019-05-26T04:29:45.820Z,11.03
2019-05-26T04:32:14.278Z,10.77
2019-05-26T04:34:42.751Z,11.00
2019-05-26T04:37:11.219Z,11.20
2019-05-26T04:39:39.656Z,12.17
2019-05-26T04:42:08.197Z,11.50
2019-05-26T04:44:36.641Z,10.93
2019-05-26T04:47:05.354Z,11.70
2019-05-26T04:49:37.254Z,11.70
2019-05-26T04:52:04.197Z,12.27
2019-05-26T04:54:32.642Z,12.57
2019-05-26T04:57:01.123Z,12.20
2019-05-26T04:59:29.573Z,11.40
2019-05-26T05:01:58.014Z,11.27
2019-05-26T05:04:26.463Z,10.47
2019-05-26T05:06:54.936Z,11.90
2019-05-26T05:09:23.388Z,10.77
2019-05-26T05:11:52.023Z,11.80
2019-05-26T05:14:20.657Z,11.70
2019-05-26T05:16:49.115Z,11.20
2019-05-26T05:19:17.553Z,12.17
2019-05-26T05:21:46.028Z,11.93
2019-05-26T05:24:14.537Z,10.77
2019-05-26T05:26:43.003Z,11.37
2019-05-26T05:29:11.443Z,12.20
2019-05-26T05:31:39.904Z,13.10
2019-05-26T05:34:08.368Z,13.47
2019-05-26T05:36:36.895Z,14.33
2019-05-26T05:39:07.677Z,12.70
2019-05-26T05:41:36.155Z,11.87
2019-05-26T05:44:04.877Z,11.50
2019-05-26T05:46:33.314Z,12.23
2019-05-26T05:49:02.062Z,11.73
2019-05-26T05:51:30.502Z,13.33
2019-05-26T05:53:59.036Z,13.37
2019-05-26T05:56:27.468Z,11.87
2019-05-26T05:58:55.924Z,12.43
2019-05-26T06:01:24.732Z,13.00
2019-05-26T06:03:53.201Z,12.07
2019-05-26T06:06:21.716Z,13.60
2019-05-26T06:08:50.200Z,13.80
2019-05-26T06:11:18.965Z,14.37
2019-05-26T06:13:47.487Z,13.40
2019-05-26T06:16:15.948Z,13.50
2019-05-26T06:18:44.427Z,13.43
2019-05-26T06:21:12.854Z,14.10
2019-05-26T06:23:41.324Z,14.43
2019-05-26T06:26:09.766Z,14.47
2019-05-26T06:28:38.294Z,12.77
2019-05-26T06:31:06.735Z,13.20
2019-05-26T06:33:35.197Z,14.53
2019-05-26T06:36:03.634Z,14.13
2019-05-26T06:38:32.100Z,15.23
2019-05-26T06:41:00.623Z,15.17
2019-05-26T06:43:29.085Z,15.57
2019-05-26T06:45:57.522Z,15.33
2019-05-26T06:48:26.949Z,14.97
2019-05-26T06:50:55.779Z,16.10
2019-05-26T06:53:24.249Z,14.20
2019-05-26T06:55:52.784Z,14.37
2019-05-26T06:58:21.239Z,16.30
2019-05-26T07:00:50.063Z,15.60
2019-05-26T07:03:18.594Z,16.17
2019-05-26T07:05:47.043Z,16.37
2019-05-26T07:08:15.511Z,15.17
2019-05-26T07:10:43.950Z,15.90
2019-05-26T07:13:12.395Z,16.93
2019-05-26T07:15:41.114Z,15.73
2019-05-26T07:18:09.559Z,16.00
2019-05-26T07:20:38.031Z,16.73
2019-05-26T07:23:07.737Z,14.37
2019-05-26T07:25:36.727Z,15.87
2019-05-26T07:28:05.299Z,14.87
2019-05-26T07:30:33.768Z,16.87
2019-05-26T07:33:02.240Z,15.70
2019-05-26T07:35:33.086Z,17.53
2019-05-26T07:38:00.928Z,16.67
2019-05-26T07:40:29.480Z,14.70
2019-05-26T07:42:57.980Z,14.77
2019-05-26T07:45:27.690Z,15.93
2019-05-26T07:47:56.123Z,16.10
2019-05-26T07:50:24.652Z,14.37
2019-05-26T07:52:53.160Z,13.97
2019-05-26T07:55:21.623Z,14.67
2019-05-26T07:57:50.062Z,13.43
2019-05-26T08:00:20.268Z,15.30
2019-05-26T08:02:48.722Z,16.27
2019-05-26T08:05:18.127Z,14.83
2019-05-26T08:07:46.570Z,15.60
2019-05-26T08:10:15.090Z,15.37
2019-05-26T08:12:43.519Z,17.30
2019-05-26T08:15:12.329Z,15.30
2019-05-26T08:17:40.908Z,15.77
2019-05-26T08:20:10.517Z,15.17
2019-05-26T08:22:38.963Z,15.07
2019-05-26T08:25:08.270Z,14.70
2019-05-26T08:27:36.710Z,17.97
2019-05-26T08:30:07.615Z,18.63
2019-05-26T08:32:36.087Z,16.20
2019-05-26T08:35:06.768Z,16.13
2019-05-26T08:37:35.204Z,15.10
2019-05-26T08:40:19.400Z,17.00
2019-05-26T08:42:48.986Z,15.90
2019-05-26T08:45:21.402Z,13.60
2019-05-26T08:47:48.210Z,14.80
2019-05-26T08:50:17.431Z,15.40
2019-05-26T08:52:45.881Z,15.37
2019-05-26T08:55:15.175Z,16.37
2019-05-26T08:57:43.627Z,16.23
2019-05-26T09:00:14.332Z,16.90
2019-05-26T09:02:42.929Z,15.53
2019-05-26T09:05:11.622Z,16.83
2019-05-26T09:07:40.060Z,15.43
2019-05-26T09:10:08.818Z,14.40
2019-05-26T09:12:37.588Z,14.53
2019-05-26T09:15:06.856Z,12.70
2019-05-26T09:17:35.676Z,14.67
2019-05-26T09:20:10.401Z,14.40
2019-05-26T09:22:37.212Z,15.23
2019-05-26T09:25:09.316Z,14.63
2019-05-26T09:27:37.774Z,13.70
2019-05-26T09:30:08.128Z,12.57
2019-05-26T09:32:37.069Z,15.37
2019-05-26T09:35:08.745Z,13.17
2019-05-26T09:37:37.200Z,16.27
2019-05-26T09:40:08.866Z,15.83
2019-05-26T09:42:37.387Z,13.73
2019-05-26T09:45:08.025Z,11.57
2019-05-26T09:47:36.481Z,13.40
2019-05-26T09:50:06.671Z,11.13
2019-05-26T09:52:35.329Z,12.90
2019-05-26T09:55:07.375Z,14.33
2019-05-26T09:57:36.102Z,14.77
2019-05-26T10:00:09.405Z,11.83
2019-05-26T10:02:37.994Z,14.87
2019-05-26T10:05:07.067Z,12.37
2019-05-26T10:07:35.539Z,12.40
2019-05-26T10:10:08.451Z,12.53
2019-05-26T10:12:36.999Z,12.70
2019-05-26T10:15:06.693Z,11.67
2019-05-26T10:17:35.223Z,11.03
2019-05-26T10:20:06.564Z,12.77
2019-05-26T10:22:35.126Z,10.53
2019-05-26T10:25:07.622Z,11.57
2019-05-26T10:27:36.327Z,10.63
2019-05-26T10:30:10.451Z,8.93
2019-05-26T10:32:39.291Z,11.53
2019-05-26T10:35:08.970Z,10.00
2019-05-26T10:37:37.431Z,11.50
2019-05-26T10:40:07.819Z,12.73
2019-05-26T10:42:36.298Z,11.60
2019-05-26T10:45:10.398Z,12.50
2019-05-26T10:47:38.867Z,10.77
2019-05-26T10:50:08.744Z,11.50
2019-05-26T10:52:37.213Z,12.17
2019-05-26T10:55:08.537Z,10.10
2019-05-26T10:57:37.008Z,10.43
2019-05-26T11:00:09.700Z,10.80
2019-05-26T11:02:38.139Z,9.90
2019-05-26T11:05:08.826Z,9.40
2019-05-26T11:07:37.356Z,12.67
2019-05-26T11:10:09.522Z,9.13
2019-05-26T11:12:38.351Z,8.70
2019-05-26T11:15:08.687Z,9.50
2019-05-26T11:17:37.406Z,8.20
2019-05-26T11:20:08.040Z,8.93
2019-05-26T11:22:36.508Z,10.90
2019-05-26T11:25:06.669Z,10.30
2019-05-26T11:27:35.123Z,9.97
2019-05-26T11:30:05.328Z,9.50
2019-05-26T11:32:33.765Z,8.37
2019-05-26T11:35:02.472Z,8.47
2019-05-26T11:37:31.010Z,8.97
2019-05-26T11:39:59.633Z,8.93
2019-05-26T11:42:28.068Z,9.00
2019-05-26T11:44:56.514Z,9.27
2019-05-26T11:47:24.989Z,10.47
2019-05-26T11:49:53.506Z,9.73
2019-05-26T11:52:21.945Z,9.00
2019-05-26T11:54:50.408Z,7.67
2019-05-26T11:57:18.840Z,8.17
2019-05-26T11:59:47.579Z,8.57
2019-05-26T12:02:16.130Z,9.20
2019-05-26T12:04:44.662Z,9.33
2019-05-26T12:07:13.092Z,8.90
2019-05-26T12:09:41.615Z,8.80
2019-05-26T12:12:10.060Z,8.20
2019-05-26T12:14:38.806Z,8.27
2019-05-26T12:17:07.383Z,7.67
2019-05-26T12:19:35.842Z,8.23
2019-05-26T12:22:04.338Z,7.23
2019-05-26T12:24:32.799Z,8.43
2019-05-26T12:27:01.245Z,8.00
2019-05-26T12:29:30.104Z,8.40
2019-05-26T12:31:58.531Z,7.13
2019-05-26T12:34:27.009Z,7.67
2019-05-26T12:36:55.451Z,6.50
2019-05-26T12:39:23.911Z,6.90
2019-05-26T12:41:52.425Z,7.57
2019-05-26T12:44:20.885Z,7.90
2019-05-26T12:46:49.321Z,6.97
2019-05-26T12:49:17.771Z,7.00
2019-05-26T12:51:46.213Z,7.20
2019-05-26T12:54:14.672Z,7.27
2019-05-26T12:56:43.114Z,7.53
2019-05-26T12:59:11.551Z,8.17
2019-05-26T13:01:40.007Z,8.17
2019-05-26T13:04:08.448Z,7.50
2019-05-26T13:06:36.923Z,7.67
2019-05-26T13:09:11.622Z,5.67
2019-05-26T13:11:40.071Z,7.67
2019-05-26T13:14:08.580Z,6.90
2019-05-26T13:16:37.082Z,7.57
2019-05-26T13:19:05.727Z,8.10
2019-05-26T13:21:34.271Z,7.10
2019-05-26T13:24:02.732Z,6.70
2019-05-26T13:26:31.236Z,7.20
2019-05-26T13:28:59.667Z,8.00
2019-05-26T13:31:28.124Z,7.23
2019-05-26T13:33:56.612Z,6.90
2019-05-26T13:36:25.072Z,8.10
2019-05-26T13:38:53.511Z,6.97
2019-05-26T13:41:21.972Z,7.80
2019-05-26T13:43:50.410Z,7.93
2019-05-26T13:46:18.889Z,7.80
2019-05-26T13:48:47.366Z,6.97
2019-05-26T13:51:15.860Z,7.60
2019-05-26T13:53:44.316Z,7.40
2019-05-26T13:56:12.891Z,6.87
2019-05-26T13:58:41.401Z,7.87
2019-05-26T14:01:09.955Z,8.67
2019-05-26T14:03:38.462Z,7.47
2019-05-26T14:06:07.058Z,6.33
2019-05-26T14:08:35.499Z,8.10
2019-05-26T14:11:04.103Z,7.27
2019-05-26T14:13:32.551Z,7.50
2019-05-26T14:16:03.113Z,7.33
2019-05-26T14:18:33.879Z,7.53
2019-05-26T14:21:02.351Z,6.37
2019-05-26T14:23:30.852Z,7.73
2019-05-26T14:25:59.320Z,7.20
2019-05-26T14:28:27.805Z,7.07
2019-05-26T14:30:56.321Z,6.60
2019-05-26T14:33:24.763Z,7.47
2019-05-26T14:35:53.995Z,7.10
2019-05-26T14:38:22.752Z,7.47
2019-05-26T14:40:51.324Z,6.73
2019-05-26T14:43:20.067Z,7.60
2019-05-26T14:45:53.314Z,7.90
2019-05-26T14:48:18.700Z,7.90
2019-05-26T14:50:47.128Z,7.37
2019-05-26T14:53:15.685Z,7.07
2019-05-26T14:55:44.255Z,5.87
2019-05-26T14:58:16.066Z,7.27
2019-05-26T15:00:43.107Z,7.70
2019-05-26T15:03:11.645Z,6.60
2019-05-26T15:05:40.090Z,6.63
2019-05-26T15:08:08.631Z,6.60
2019-05-26T15:10:37.073Z,8.10
2019-05-26T15:13:05.532Z,7.60
2019-05-26T15:15:35.142Z,6.47
2019-05-26T15:18:03.799Z,6.00
2019-05-26T15:20:32.240Z,5.90
2019-05-26T15:23:00.720Z,7.33
2019-05-26T15:25:29.172Z,7.10
2019-05-26T15:27:57.646Z,7.33
2019-05-26T15:30:26.260Z,7.47
2019-05-26T15:32:54.847Z,7.27
2019-05-26T15:35:23.292Z,6.07
2019-05-26T15:37:52.433Z,5.67
2019-05-26T15:40:20.954Z,7.20
2019-05-26T15:42:49.434Z,7.10
2019-05-26T15:45:18.109Z,7.20
2019-05-26T15:47:46.559Z,7.50
2019-05-26T15:50:15.476Z,6.93
2019-05-26T15:52:43.985Z,7.67
2019-05-26T15:55:12.665Z,7.43
2019-05-26T15:57:41.195Z,7.70
2019-05-26T16:00:11.964Z,7.43
2019-05-26T16:02:40.403Z,6.83
2019-05-26T16:05:10.649Z,6.97
2019-05-26T16:07:39.086Z,7.33
2019-05-26T16:10:08.279Z,6.87
2019-05-26T16:12:36.763Z,7.63
2019-05-26T16:15:09.277Z,8.07
2019-05-26T16:17:38.901Z,6.37
2019-05-26T16:20:09.137Z,6.63
2019-05-26T16:22:37.826Z,7.43
2019-05-26T16:25:10.944Z,7.63
2019-05-26T16:27:43.035Z,8.67
2019-05-26T16:30:13.990Z,8.50
2019-05-26T16:32:42.474Z,8.47
2019-05-26T16:35:11.328Z,8.67
2019-05-26T16:37:39.784Z,8.17
2019-05-26T16:40:08.576Z,7.93
2019-05-26T16:42:38.656Z,8.73
2019-05-26T16:45:08.521Z,8.77
2019-05-26T16:47:37.055Z,8.60
2019-05-26T16:50:08.544Z,8.93
2019-05-26T16:52:37.081Z,9.20
2019-05-26T16:55:07.281Z,9.10
2019-05-26T16:57:35.814Z,9.03
2019-05-26T17:00:06.349Z,8.73
2019-05-26T17:02:34.919Z,8.87
2019-05-26T17:05:03.768Z,8.60
2019-05-26T17:07:32.643Z,8.87
2019-05-26T17:10:01.248Z,7.60
2019-05-26T17:12:29.794Z,9.30
2019-05-26T17:14:58.464Z,10.07
2019-05-26T17:17:26.902Z,8.83
2019-05-26T17:19:55.366Z,8.57
2019-05-26T17:22:23.986Z,8.77
2019-05-26T17:24:59.859Z,8.60
2019-05-26T17:27:26.983Z,8.37
2019-05-26T17:29:58.456Z,8.43
2019-05-26T17:32:27.349Z,9.13
2019-05-26T17:34:55.864Z,8.37
2019-05-26T17:37:24.294Z,8.80
2019-05-26T17:39:52.756Z,8.40
2019-05-26T17:42:21.189Z,8.70
2019-05-26T17:44:49.686Z,8.63
2019-05-26T17:47:29.815Z,8.90
2019-05-26T17:49:48.371Z,9.10
2019-05-26T17:52:16.915Z,8.30
2019-05-26T17:54:45.385Z,6.70
2019-05-26T17:57:13.840Z,8.30
2019-05-26T17:59:44.819Z,7.77
2019-05-26T18:02:13.271Z,8.20
2019-05-26T18:04:41.717Z,7.80
2019-05-26T18:07:10.183Z,7.77
2019-05-26T18:09:44.318Z,8.77
2019-05-26T18:12:09.147Z,8.67
2019-05-26T18:14:37.698Z,8.47
2019-05-26T18:17:06.473Z,8.60
2019-05-26T18:19:35.175Z,8.47
2019-05-26T18:22:03.636Z,11.03
2019-05-26T18:24:32.116Z,9.73
2019-05-26T18:27:00.695Z,8.50
2019-05-26T18:29:29.280Z,9.33
2019-05-26T18:31:57.836Z,9.00
2019-05-26T18:34:26.344Z,8.67
2019-05-26T18:36:55.002Z,8.33
2019-05-26T18:39:23.493Z,7.90
2019-05-26T18:41:52.099Z,8.10
2019-05-26T18:44:23.313Z,8.73
2019-05-26T18:46:53.646Z,8.80
2019-05-26T18:49:22.235Z,8.20
2019-05-26T18:51:50.756Z,8.70
2019-05-26T18:54:19.183Z,8.70
2019-05-26T18:56:50.418Z,8.90
2019-05-26T18:59:18.986Z,8.90
2019-05-26T19:01:47.452Z,8.57
2019-05-26T19:04:15.915Z,8.40
2019-05-26T19:06:45.116Z,8.73
2019-05-26T19:09:13.543Z,8.80
2019-05-26T19:11:42.016Z,9.70
2019-05-26T19:14:11.154Z,9.70
2019-05-26T19:16:42.470Z,9.23
2019-05-26T19:19:10.975Z,8.87
2019-05-26T19:21:39.456Z,10.70
2019-05-26T19:24:08.083Z,10.50
2019-05-26T19:26:36.597Z,9.20
2019-05-26T19:29:05.122Z,9.43
2019-05-26T19:31:33.658Z,8.60
2019-05-26T19:34:02.195Z,7.83
2019-05-26T19:36:30.641Z,8.90
2019-05-26T19:38:59.186Z,8.63
2019-05-26T19:41:27.637Z,8.93
2019-05-26T19:43:56.098Z,8.43
2019-05-26T19:46:27.345Z,8.47
2019-05-26T19:48:57.666Z,8.80
2019-05-26T19:51:26.257Z,8.07
2019-05-26T19:53:54.756Z,8.83
2019-05-26T19:56:23.242Z,9.40
2019-05-26T19:58:51.707Z,11.90
2019-05-26T20:01:20.233Z,10.77
2019-05-26T20:03:48.758Z,10.63
2019-05-26T20:06:17.198Z,9.37
2019-05-26T20:08:45.853Z,9.53
2019-05-26T20:11:14.410Z,9.30
2019-05-26T20:13:42.895Z,9.10
2019-05-26T20:16:11.475Z,9.90
2019-05-26T20:18:40.123Z,9.10
2019-05-26T20:21:08.563Z,8.77
2019-05-26T20:23:37.024Z,8.60
2019-05-26T20:26:05.481Z,7.90
2019-05-26T20:28:33.954Z,8.63
2019-05-26T20:31:02.390Z,8.93
2019-05-26T20:33:30.881Z,8.83
2019-05-26T20:35:59.450Z,9.30
2019-05-26T20:38:28.043Z,9.17
2019-05-26T20:40:56.564Z,9.20
2019-05-26T20:43:25.204Z,8.67
2019-05-26T20:45:53.751Z,8.60
2019-05-26T20:48:22.194Z,8.97
2019-05-26T20:50:50.653Z,9.73
2019-05-26T20:53:19.223Z,8.77
2019-05-26T20:55:47.684Z,9.10
2019-05-26T20:58:16.120Z,9.63
2019-05-26T21:00:44.573Z,8.47
2019-05-26T21:03:13.356Z,9.00
2019-05-26T21:05:41.855Z,7.67
2019-05-26T21:08:10.552Z,10.30
2019-05-26T21:10:39.006Z,9.40
2019-05-26T21:13:07.520Z,10.10
2019-05-26T21:15:36.503Z,9.67
2019-05-26T21:18:05.016Z,8.87
2019-05-26T21:20:33.520Z,9.40
2019-05-26T21:23:02.340Z,9.53
2019-05-26T21:25:31.233Z,9.00
2019-05-26T21:27:59.672Z,9.97
2019-05-26T21:30:28.136Z,8.73
2019-05-26T21:32:56.577Z,8.80
2019-05-26T21:35:25.036Z,9.57
2019-05-26T21:37:53.752Z,8.27
2019-05-26T21:40:22.653Z,8.70
2019-05-26T21:42:51.088Z,8.87
2019-05-26T21:45:19.642Z,8.30
2019-05-26T21:47:48.267Z,7.83
2019-05-26T21:50:17.548Z,8.77
2019-05-26T21:52:45.999Z,8.73
2019-05-26T21:55:14.829Z,8.23
2019-05-26T21:57:43.308Z,6.73
2019-05-26T22:00:17.285Z,7.70
2019-05-26T22:02:45.723Z,8.13
2019-05-26T22:05:14.579Z,8.07
2019-05-26T22:07:43.015Z,8.80
2019-05-26T22:10:11.863Z,7.73
2019-05-26T22:12:40.371Z,8.40
2019-05-26T22:15:09.471Z,9.07
2019-05-26T22:17:38.000Z,8.50
2019-05-26T22:20:07.866Z,9.07
2019-05-26T22:22:36.303Z,7.83
2019-05-26T22:25:06.608Z,7.23
2019-05-26T22:27:35.048Z,7.90
2019-05-26T22:30:04.838Z,8.20
2019-05-26T22:32:33.359Z,8.57
2019-05-26T22:35:01.831Z,8.40
2019-05-26T22:37:30.374Z,8.00
2019-05-26T22:39:58.864Z,8.30
2019-05-26T22:42:27.370Z,9.20
2019-05-26T22:44:55.847Z,8.40
2019-05-26T22:47:24.325Z,8.03
2019-05-26T22:49:52.750Z,8.53
2019-05-26T22:52:21.306Z,8.37
2019-05-26T22:54:49.814Z,8.30
2019-05-26T22:57:18.270Z,8.50
2019-05-26T22:59:46.696Z,8.80
2019-05-26T23:02:15.147Z,8.40
2019-05-26T23:04:43.584Z,8.60
2019-05-26T23:07:12.081Z,8.93
2019-05-26T23:09:40.506Z,8.40
2019-05-26T23:12:08.959Z,7.47
2019-05-26T23:14:37.429Z,8.87
2019-05-26T23:17:05.961Z,8.47
2019-05-26T23:19:35.106Z,8.57
2019-05-26T23:22:03.661Z,9.27
2019-05-26T23:24:32.141Z,7.90
2019-05-26T23:27:01.000Z,8.07
2019-05-26T23:29:29.436Z,8.27
2019-05-26T23:31:57.998Z,8.93
2019-05-26T23:34:26.491Z,8.67
2019-05-26T23:36:55.022Z,9.17
2019-05-26T23:39:23.457Z,9.53
2019-05-26T23:41:51.916Z,9.43
2019-05-26T23:44:20.357Z,8.87
2019-05-26T23:46:48.800Z,8.80
2019-05-26T23:49:17.254Z,8.37
2019-05-26T23:51:45.703Z,8.97
2019-05-26T23:54:14.176Z,8.77
2019-05-26T23:56:42.658Z,8.90
2019-05-26T23:59:11.103Z,9.50
